createdAt,value
2018-10-12T00:05:43.396Z,16.00
2018-10-12T00:15:46.620Z,16.00
2018-10-12T00:25:49.841Z,16.00
2018-10-12T00:35:53.089Z,16.00
2018-10-12T00:45:56.310Z,16.00
2018-10-12T00:55:59.537Z,16.00
2018-10-12T01:06:02.770Z,16.00
2018-10-12T01:16:06.071Z,15.90
2018-10-12T01:26:10.640Z,15.80
2018-10-12T01:36:13.883Z,15.70
2018-10-12T01:46:17.122Z,15.70
2018-10-12T01:56:20.345Z,15.60
2018-10-12T02:06:23.592Z,15.50
2018-10-12T02:16:26.815Z,15.40
2018-10-12T02:26:30.052Z,15.30
2018-10-12T02:36:33.317Z,15.10
2018-10-12T02:46:36.796Z,14.80
2018-10-12T02:56:40.036Z,14.70
2018-10-12T03:06:43.261Z,14.70
2018-10-12T03:16:46.489Z,14.60
2018-10-12T03:26:49.772Z,14.50
2018-10-12T03:36:53.090Z,14.40
2018-10-12T03:46:56.321Z,14.30
2018-10-12T03:56:59.560Z,14.20
2018-10-12T04:07:02.810Z,14.00
2018-10-12T04:17:06.026Z,14.00
2018-10-12T04:27:09.249Z,13.80
2018-10-12T04:37:12.642Z,13.80
2018-10-12T04:47:15.915Z,13.70
2018-10-12T04:57:19.137Z,13.60
2018-10-12T05:07:22.437Z,13.60
2018-10-12T05:17:25.673Z,13.50
2018-10-12T05:27:28.932Z,13.40
2018-10-12T05:37:32.184Z,13.30
2018-10-12T05:47:35.668Z,13.40
2018-10-12T05:57:40.676Z,13.30
2018-10-12T06:07:44.536Z,13.20
2018-10-12T06:17:47.884Z,13.30
2018-10-12T06:27:51.210Z,13.40
2018-10-12T06:37:54.560Z,13.60
2018-10-12T06:47:57.946Z,13.80
2018-10-12T06:58:01.236Z,13.90
2018-10-12T07:08:04.646Z,13.90
2018-10-12T07:18:07.924Z,14.00
2018-10-12T07:28:11.329Z,14.20
2018-10-12T07:38:14.867Z,14.60
2018-10-12T07:48:17.973Z,14.90
2018-10-12T07:58:21.524Z,15.20
2018-10-12T08:08:24.976Z,15.50
2018-10-12T08:18:28.812Z,15.70
2018-10-12T08:28:32.104Z,15.90
2018-10-12T08:38:35.382Z,16.20
2018-10-12T08:48:38.645Z,16.60
2018-10-12T08:58:42.037Z,16.90
2018-10-12T09:08:45.517Z,17.30
2018-10-12T09:18:48.877Z,17.60
2018-10-12T09:28:52.137Z,18.00
2018-10-12T09:38:55.398Z,18.30
2018-10-12T09:48:59.148Z,18.60
2018-10-12T09:59:02.397Z,19.00
2018-10-12T10:09:06.008Z,19.30
2018-10-12T10:19:09.295Z,19.60
2018-10-12T10:29:12.565Z,19.90
2018-10-12T10:39:16.021Z,20.20
2018-10-12T10:49:19.283Z,20.40
2018-10-12T10:59:22.493Z,20.70
2018-10-12T11:09:25.716Z,20.80
2018-10-12T11:19:29.084Z,21.10
2018-10-12T11:29:32.337Z,21.40
2018-10-12T11:39:35.616Z,21.70
2018-10-12T11:49:38.860Z,22.10
2018-10-12T11:59:42.116Z,22.60
2018-10-12T12:09:45.503Z,23.00
2018-10-12T12:19:48.744Z,23.30
2018-10-12T12:29:52.075Z,23.30
2018-10-12T12:39:55.344Z,23.30
2018-10-12T12:49:58.661Z,23.30
2018-10-12T13:00:01.989Z,23.40
2018-10-12T13:10:05.209Z,23.50
2018-10-12T13:20:08.494Z,23.50
2018-10-12T13:30:11.757Z,23.60
2018-10-12T13:40:15.020Z,23.60
2018-10-12T13:50:18.242Z,23.60
2018-10-12T14:00:21.614Z,23.60
2018-10-12T14:10:24.737Z,23.60
2018-10-12T14:20:28.001Z,23.90
2018-10-12T14:30:31.293Z,24.10
2018-10-12T14:40:34.612Z,24.20
2018-10-12T14:50:37.841Z,24.50
2018-10-12T15:00:41.072Z,25.50
2018-10-12T15:10:44.310Z,25.50
2018-10-12T15:20:47.661Z,25.00
2018-10-12T15:30:50.881Z,24.30
2018-10-12T15:40:54.141Z,23.70
2018-10-12T15:50:57.857Z,23.30
2018-10-12T16:01:01.040Z,22.90
2018-10-12T16:11:04.265Z,22.50
2018-10-12T16:21:07.736Z,22.20
2018-10-12T16:31:10.986Z,22.60
2018-10-12T16:41:14.214Z,22.10
2018-10-12T16:51:17.463Z,21.60
2018-10-12T17:01:20.692Z,21.40
2018-10-12T17:11:23.945Z,21.10
2018-10-12T17:21:27.274Z,20.80
2018-10-12T17:31:30.532Z,20.50
2018-10-12T17:41:33.773Z,20.20
2018-10-12T17:51:37.054Z,19.90
2018-10-12T18:01:40.265Z,19.60
2018-10-12T18:11:43.481Z,19.40
2018-10-12T18:21:47.201Z,19.20
2018-10-12T18:31:50.570Z,19.00
2018-10-12T18:41:53.948Z,18.80
2018-10-12T18:51:57.505Z,18.70
2018-10-12T19:02:00.700Z,18.50
2018-10-12T19:12:03.924Z,18.40
2018-10-12T19:22:07.453Z,18.20
2018-10-12T19:32:10.720Z,18.00
2018-10-12T19:52:23.461Z,17.70
2018-10-12T20:02:26.689Z,17.50
2018-10-12T20:12:29.934Z,17.40
2018-10-12T20:22:33.157Z,17.20
2018-10-12T20:32:36.445Z,17.10
2018-10-12T20:42:39.668Z,17.00
2018-10-12T20:52:42.909Z,16.80
2018-10-12T21:02:46.455Z,16.80
2018-10-12T21:12:49.694Z,16.70
2018-10-12T21:22:52.942Z,16.60
2018-10-12T21:32:56.284Z,16.40
2018-10-12T21:42:59.692Z,16.20
2018-10-12T21:53:02.920Z,16.20
2018-10-12T22:03:06.141Z,16.10
2018-10-12T22:13:09.363Z,16.10
2018-10-12T22:23:12.601Z,15.90
2018-10-12T22:33:16.159Z,15.80
2018-10-12T22:43:19.325Z,15.70
2018-10-12T22:53:22.601Z,15.60
2018-10-12T23:03:25.829Z,15.40
2018-10-12T23:13:29.036Z,15.40
2018-10-12T23:23:32.358Z,15.30
2018-10-12T23:33:46.968Z,15.20
2018-10-12T23:43:50.416Z,15.10
2018-10-12T23:53:53.636Z,15.00
